sensor_id;sensor_type;location;lat;lon;timestamp;pressure;altitude;pressure_sealevel;temperature;humidity
81608;BME280;71022;48.122;11.576;2023-08-20T00:01:38;95967.34;;;24.83;55.94
81608;BME280;71022;48.122;11.576;2023-08-20T00:04:06;95963.81;;;24.78;55.92
81608;BME280;71022;48.122;11.576;2023-08-20T00:06:33;95965.47;;;24.76;56.32
81608;BME280;71022;48.122;11.576;2023-08-20T00:09:01;95967.50;;;24.75;56.26
81608;BME280;71022;48.122;11.576;2023-08-20T00:11:28;95963.97;;;24.71;56.17
81608;BME280;71022;48.122;11.576;2023-08-20T00:13:55;95966.59;;;24.62;56.61
81608;BME280;71022;48.122;11.576;2023-08-20T00:16:23;95968.00;;;24.70;56.42
81608;BME280;71022;48.122;11.576;2023-08-20T00:18:50;95963.63;;;24.69;56.21
81608;BME280;71022;48.122;11.576;2023-08-20T00:21:18;95961.88;;;24.75;55.77
81608;BME280;71022;48.122;11.576;2023-08-20T00:23:45;95959.56;;;24.70;56.08
81608;BME280;71022;48.122;11.576;2023-08-20T00:26:12;95963.97;;;24.71;55.82
81608;BME280;71022;48.122;11.576;2023-08-20T00:28:40;95966.16;;;24.64;55.91
81608;BME280;71022;48.122;11.576;2023-08-20T00:31:07;95971.34;;;24.65;55.45
81608;BME280;71022;48.122;11.576;2023-08-20T00:33:35;95964.84;;;24.68;55.72
81608;BME280;71022;48.122;11.576;2023-08-20T00:36:02;95967.66;;;24.68;55.93
81608;BME280;71022;48.122;11.576;2023-08-20T00:38:29;95971.34;;;24.65;55.75
81608;BME280;71022;48.122;11.576;2023-08-20T00:40:57;95976.59;;;24.63;55.94
81608;BME280;71022;48.122;11.576;2023-08-20T00:43:24;95983.09;;;24.60;55.89
81608;BME280;71022;48.122;11.576;2023-08-20T00:45:52;95976.75;;;24.56;55.82
81608;BME280;71022;48.122;11.576;2023-08-20T00:48:19;95975.16;;;24.55;56.12
81608;BME280;71022;48.122;11.576;2023-08-20T00:50:46;95979.03;;;24.61;55.74
81608;BME280;71022;48.122;11.576;2023-08-20T00:53:14;95976.75;;;24.56;55.28
81608;BME280;71022;48.122;11.576;2023-08-20T00:55:45;95969.00;;;24.44;55.72
81608;BME280;71022;48.122;11.576;2023-08-20T00:58:12;95981.28;;;24.34;55.77
81608;BME280;71022;48.122;11.576;2023-08-20T01:00:39;95974.94;;;24.30;55.18
81608;BME280;71022;48.122;11.576;2023-08-20T01:03:07;95974.38;;;24.19;56.05
81608;BME280;71022;48.122;11.576;2023-08-20T01:05:39;95982.88;;;24.15;56.03
81608;BME280;71022;48.122;11.576;2023-08-20T01:08:34;95983.22;;;24.17;56.92
81608;BME280;71022;48.122;11.576;2023-08-20T01:11:12;95979.47;;;24.24;56.87
81608;BME280;71022;48.122;11.576;2023-08-20T01:13:43;95971.69;;;24.32;56.51
81608;BME280;71022;48.122;11.576;2023-08-20T01:16:13;95974.41;;;24.35;56.44
81608;BME280;71022;48.122;11.576;2023-08-20T01:18:41;95968.88;;;24.32;56.54
81608;BME280;71022;48.122;11.576;2023-08-20T01:21:38;95971.78;;;24.28;56.88
81608;BME280;71022;48.122;11.576;2023-08-20T01:27:52;95978.09;;;24.32;56.57
81608;BME280;71022;48.122;11.576;2023-08-20T01:30:27;95971.06;;;24.24;56.69
81608;BME280;71022;48.122;11.576;2023-08-20T01:32:54;95975.81;;;24.27;56.87
81608;BME280;71022;48.122;11.576;2023-08-20T01:35:26;95980.84;;;24.16;57.35
81608;BME280;71022;48.122;11.576;2023-08-20T01:38:02;95981.72;;;24.13;57.25
81608;BME280;71022;48.122;11.576;2023-08-20T01:40:30;95984.88;;;24.15;57.05
81608;BME280;71022;48.122;11.576;2023-08-20T01:42:59;95978.53;;;24.11;57.22
81608;BME280;71022;48.122;11.576;2023-08-20T01:45:26;95979.75;;;24.10;56.88
81608;BME280;71022;48.122;11.576;2023-08-20T01:47:54;95990.50;;;24.15;56.91
81608;BME280;71022;48.122;11.576;2023-08-20T01:50:21;95983.47;;;24.03;56.89
81608;BME280;71022;48.122;11.576;2023-08-20T01:52:49;95985.34;;;24.10;56.13
81608;BME280;71022;48.122;11.576;2023-08-20T01:55:16;95997.94;;;24.02;56.89
81608;BME280;71022;48.122;11.576;2023-08-20T01:57:44;95990.81;;;23.97;56.47
81608;BME280;71022;48.122;11.576;2023-08-20T02:00:12;95993.13;;;24.02;55.72
81608;BME280;71022;48.122;11.576;2023-08-20T02:02:42;95990.25;;;24.06;54.29
81608;BME280;71022;48.122;11.576;2023-08-20T02:05:09;95985.69;;;23.73;54.88
81608;BME280;71022;48.122;11.576;2023-08-20T02:07:39;95989.97;;;23.57;55.45
81608;BME280;71022;48.122;11.576;2023-08-20T02:10:07;95983.09;;;23.39;55.86
81608;BME280;71022;48.122;11.576;2023-08-20T02:12:35;95981.59;;;23.31;56.70
81608;BME280;71022;48.122;11.576;2023-08-20T02:15:04;95983.91;;;23.36;56.41
81608;BME280;71022;48.122;11.576;2023-08-20T02:17:32;95980.59;;;23.44;57.04
81608;BME280;71022;48.122;11.576;2023-08-20T02:20:00;95979.47;;;23.61;56.88
81608;BME280;71022;48.122;11.576;2023-08-20T02:22:27;95973.72;;;23.68;56.62
81608;BME280;71022;48.122;11.576;2023-08-20T02:24:56;95980.13;;;23.69;56.64
81608;BME280;71022;48.122;11.576;2023-08-20T02:27:23;95984.94;;;23.68;56.64
81608;BME280;71022;48.122;11.576;2023-08-20T02:29:51;95975.94;;;23.57;57.39
81608;BME280;71022;48.122;11.576;2023-08-20T02:32:18;95986.91;;;23.48;57.21
81608;BME280;71022;48.122;11.576;2023-08-20T02:34:51;95989.16;;;23.57;57.16
81608;BME280;71022;48.122;11.576;2023-08-20T02:37:18;95988.25;;;23.63;57.22
81608;BME280;71022;48.122;11.576;2023-08-20T02:39:49;95992.16;;;23.69;57.06
81608;BME280;71022;48.122;11.576;2023-08-20T02:42:16;95994.59;;;23.67;57.04
81608;BME280;71022;48.122;11.576;2023-08-20T02:44:44;95989.00;;;23.67;56.25
81608;BME280;71022;48.122;11.576;2023-08-20T02:47:11;95984.81;;;23.76;56.25
81608;BME280;71022;48.122;11.576;2023-08-20T02:49:38;95990.44;;;23.76;56.53
81608;BME280;71022;48.122;11.576;2023-08-20T02:52:06;95992.78;;;23.57;57.24
81608;BME280;71022;48.122;11.576;2023-08-20T02:54:36;95988.88;;;23.51;57.04
81608;BME280;71022;48.122;11.576;2023-08-20T02:57:03;95992.53;;;23.48;57.32
81608;BME280;71022;48.122;11.576;2023-08-20T02:59:30;95991.31;;;23.49;57.41
81608;BME280;71022;48.122;11.576;2023-08-20T03:01:58;95989.38;;;23.46;57.74
81608;BME280;71022;48.122;11.576;2023-08-20T03:04:25;95991.09;;;23.40;57.43
81608;BME280;71022;48.122;11.576;2023-08-20T03:06:52;95986.75;;;23.59;56.93
81608;BME280;71022;48.122;11.576;2023-08-20T03:09:20;96003.28;;;23.53;56.80
81608;BME280;71022;48.122;11.576;2023-08-20T03:11:47;96001.13;;;23.61;56.75
81608;BME280;71022;48.122;11.576;2023-08-20T03:14:14;95994.97;;;23.46;57.12
81608;BME280;71022;48.122;11.576;2023-08-20T03:16:42;96002.66;;;23.42;57.61
81608;BME280;71022;48.122;11.576;2023-08-20T03:19:09;96009.56;;;23.34;57.01
81608;BME280;71022;48.122;11.576;2023-08-20T03:21:36;96008.69;;;23.41;56.92
81608;BME280;71022;48.122;11.576;2023-08-20T03:24:04;96003.09;;;23.41;57.41
81608;BME280;71022;48.122;11.576;2023-08-20T03:26:32;96007.91;;;23.40;56.99
81608;BME280;71022;48.122;11.576;2023-08-20T03:29:00;96008.78;;;23.34;57.31
81608;BME280;71022;48.122;11.576;2023-08-20T03:31:27;96006.25;;;23.43;56.95
81608;BME280;71022;48.122;11.576;2023-08-20T03:33:54;96003.16;;;23.34;57.63
81608;BME280;71022;48.122;11.576;2023-08-20T03:36:21;96011.59;;;23.34;57.55
81608;BME280;71022;48.122;11.576;2023-08-20T03:38:49;96008.78;;;23.34;57.51
81608;BME280;71022;48.122;11.576;2023-08-20T03:41:16;96006.34;;;23.36;57.30
81608;BME280;71022;48.122;11.576;2023-08-20T03:43:45;96016.38;;;23.33;57.29
81608;BME280;71022;48.122;11.576;2023-08-20T03:46:13;96011.63;;;23.30;57.52
81608;BME280;71022;48.122;11.576;2023-08-20T03:48:42;96012.44;;;23.31;57.44
81608;BME280;71022;48.122;11.576;2023-08-20T03:51:10;96015.19;;;23.34;57.31
81608;BME280;71022;48.122;11.576;2023-08-20T03:53:37;96017.25;;;23.30;57.67
81608;BME280;71022;48.122;11.576;2023-08-20T03:56:04;96013.59;;;23.33;56.99
81608;BME280;71022;48.122;11.576;2023-08-20T03:58:32;96018.09;;;23.27;57.53
81608;BME280;71022;48.122;11.576;2023-08-20T04:01:01;96016.13;;;23.24;57.33
81608;BME280;71022;48.122;11.576;2023-08-20T04:03:28;96022.53;;;23.25;57.61
81608;BME280;71022;48.122;11.576;2023-08-20T04:05:56;96031.66;;;23.32;57.67
81608;BME280;71022;48.122;11.576;2023-08-20T04:08:25;96021.63;;;23.31;57.48
81608;BME280;71022;48.122;11.576;2023-08-20T04:10:52;96026.50;;;23.27;57.82
81608;BME280;71022;48.122;11.576;2023-08-20T04:13:20;96031.31;;;23.27;57.88
81608;BME280;71022;48.122;11.576;2023-08-20T04:15:47;96044.16;;;23.24;58.01
81608;BME280;71022;48.122;11.576;2023-08-20T04:18:14;96041.75;;;23.26;57.57
81608;BME280;71022;48.122;11.576;2023-08-20T04:20:42;96041.53;;;23.40;57.03
81608;BME280;71022;48.122;11.576;2023-08-20T04:23:09;96047.28;;;23.30;57.42
81608;BME280;71022;48.122;11.576;2023-08-20T04:25:36;96051.38;;;23.25;57.63
81608;BME280;71022;48.122;11.576;2023-08-20T04:28:04;96045.25;;;23.07;58.28
81608;BME280;71022;48.122;11.576;2023-08-20T04:30:31;96053.72;;;23.27;57.46
81608;BME280;71022;48.122;11.576;2023-08-20T04:32:59;96049.22;;;23.09;58.09
81608;BME280;71022;48.122;11.576;2023-08-20T04:35:27;96055.44;;;22.94;58.33
81608;BME280;71022;48.122;11.576;2023-08-20T04:37:54;96055.41;;;22.97;58.20
81608;BME280;71022;48.122;11.576;2023-08-20T04:40:22;96056.34;;;22.87;58.09
81608;BME280;71022;48.122;11.576;2023-08-20T04:42:51;96050.63;;;22.64;58.66
81608;BME280;71022;48.122;11.576;2023-08-20T04:45:21;96051.78;;;22.40;59.66
81608;BME280;71022;48.122;11.576;2023-08-20T04:47:48;96043.97;;;22.24;60.74
81608;BME280;71022;48.122;11.576;2023-08-20T04:50:17;96044.81;;;22.21;60.61
81608;BME280;71022;48.122;11.576;2023-08-20T04:52:47;96055.59;;;22.19;60.62
81608;BME280;71022;48.122;11.576;2023-08-20T04:55:15;96053.44;;;22.00;60.91
81608;BME280;71022;48.122;11.576;2023-08-20T04:57:44;96054.75;;;21.85;61.55
81608;BME280;71022;48.122;11.576;2023-08-20T05:00:12;96054.63;;;21.99;60.52
81608;BME280;71022;48.122;11.576;2023-08-20T05:03:02;96057.00;;;22.04;60.66
81608;BME280;71022;48.122;11.576;2023-08-20T05:05:29;96062.44;;;22.18;60.34
81608;BME280;71022;48.122;11.576;2023-08-20T05:07:57;96066.38;;;22.21;60.53
81608;BME280;71022;48.122;11.576;2023-08-20T05:10:24;96059.53;;;22.25;60.98
81608;BME280;71022;48.122;11.576;2023-08-20T05:12:52;96054.06;;;22.48;60.19
81608;BME280;71022;48.122;11.576;2023-08-20T05:15:19;96051.84;;;22.67;59.57
81608;BME280;71022;48.122;11.576;2023-08-20T05:17:47;96057.72;;;22.76;59.36
81608;BME280;71022;48.122;11.576;2023-08-20T05:20:15;96060.09;;;22.77;59.34
81608;BME280;71022;48.122;11.576;2023-08-20T05:22:43;96054.44;;;22.81;59.24
81608;BME280;71022;48.122;11.576;2023-08-20T05:25:11;96062.38;;;22.86;58.84
81608;BME280;71022;48.122;11.576;2023-08-20T05:27:41;96058.78;;;22.85;58.62
81608;BME280;71022;48.122;11.576;2023-08-20T05:30:08;96063.22;;;22.83;58.27
81608;BME280;71022;48.122;11.576;2023-08-20T05:32:36;96058.56;;;22.73;58.64
81608;BME280;71022;48.122;11.576;2023-08-20T05:35:07;96052.13;;;22.76;58.38
81608;BME280;71022;48.122;11.576;2023-08-20T05:37:35;96056.19;;;22.71;58.70
81608;BME280;71022;48.122;11.576;2023-08-20T05:40:03;96052.13;;;22.76;58.96
81608;BME280;71022;48.122;11.576;2023-08-20T05:42:33;96055.00;;;22.69;59.12
81608;BME280;71022;48.122;11.576;2023-08-20T05:45:05;96051.28;;;22.79;59.34
81608;BME280;71022;48.122;11.576;2023-08-20T05:47:33;96057.16;;;22.88;58.99
81608;BME280;71022;48.122;11.576;2023-08-20T05:50:00;96059.00;;;22.98;58.81
81608;BME280;71022;48.122;11.576;2023-08-20T05:52:28;96055.59;;;23.10;58.22
81608;BME280;71022;48.122;11.576;2023-08-20T05:54:55;96055.81;;;23.23;57.78
81608;BME280;71022;48.122;11.576;2023-08-20T05:57:22;96053.81;;;23.23;57.75
81608;BME280;71022;48.122;11.576;2023-08-20T05:59:49;96045.22;;;23.34;56.58
81608;BME280;71022;48.122;11.576;2023-08-20T06:02:18;96049.66;;;23.31;57.32
81608;BME280;71022;48.122;11.576;2023-08-20T06:04:45;96050.31;;;23.42;56.57
81608;BME280;71022;48.122;11.576;2023-08-20T06:07:12;96048.59;;;23.48;56.07
81608;BME280;71022;48.122;11.576;2023-08-20T06:09:40;96047.03;;;23.47;55.90
81608;BME280;71022;48.122;11.576;2023-08-20T06:12:07;96047.59;;;23.62;54.81
81608;BME280;71022;48.122;11.576;2023-08-20T06:14:34;96056.34;;;23.64;54.99
81608;BME280;71022;48.122;11.576;2023-08-20T06:17:02;96053.91;;;23.66;53.74
81608;BME280;71022;48.122;11.576;2023-08-20T06:19:29;96053.25;;;23.58;55.44
81608;BME280;71022;48.122;11.576;2023-08-20T06:21:56;96063.47;;;23.68;53.78
81608;BME280;71022;48.122;11.576;2023-08-20T06:24:24;96066.59;;;23.74;53.13
81608;BME280;71022;48.122;11.576;2023-08-20T06:26:51;96060.78;;;23.85;52.15
81608;BME280;71022;48.122;11.576;2023-08-20T06:29:18;96067.19;;;23.85;51.77
81608;BME280;71022;48.122;11.576;2023-08-20T06:31:46;96069.44;;;23.94;50.72
81608;BME280;71022;48.122;11.576;2023-08-20T06:34:13;96070.66;;;23.93;51.56
81608;BME280;71022;48.122;11.576;2023-08-20T06:36:40;96075.91;;;23.91;52.44
81608;BME280;71022;48.122;11.576;2023-08-20T06:39:08;96076.56;;;24.21;49.35
81608;BME280;71022;48.122;11.576;2023-08-20T06:41:35;96081.53;;;24.53;50.84
81608;BME280;71022;48.122;11.576;2023-08-20T06:44:03;96078.81;;;24.69;50.02
81608;BME280;71022;48.122;11.576;2023-08-20T06:46:30;96072.38;;;24.89;48.35
81608;BME280;71022;48.122;11.576;2023-08-20T06:48:58;96071.38;;;24.99;48.64
81608;BME280;71022;48.122;11.576;2023-08-20T06:51:25;96065.59;;;25.06;47.26
81608;BME280;71022;48.122;11.576;2023-08-20T06:53:54;96068.94;;;25.33;48.08
81608;BME280;71022;48.122;11.576;2023-08-20T06:56:22;96070.41;;;25.73;47.40
81608;BME280;71022;48.122;11.576;2023-08-20T06:58:49;96078.56;;;26.16;45.21
81608;BME280;71022;48.122;11.576;2023-08-20T07:01:17;96082.88;;;26.62;44.47
81608;BME280;71022;48.122;11.576;2023-08-20T07:03:45;96091.03;;;27.02;44.30
81608;BME280;71022;48.122;11.576;2023-08-20T07:06:12;96089.59;;;27.35;42.72
81608;BME280;71022;48.122;11.576;2023-08-20T07:08:41;96081.59;;;27.71;41.10
81608;BME280;71022;48.122;11.576;2023-08-20T07:11:09;96085.16;;;27.84;42.10
81608;BME280;71022;48.122;11.576;2023-08-20T07:13:36;96082.09;;;27.91;40.56
81608;BME280;71022;48.122;11.576;2023-08-20T07:16:04;96073.97;;;27.93;40.77
81608;BME280;71022;48.122;11.576;2023-08-20T07:18:32;96082.63;;;28.12;40.57
81608;BME280;71022;48.122;11.576;2023-08-20T07:20:59;96081.56;;;28.31;40.25
81608;BME280;71022;48.122;11.576;2023-08-20T07:23:27;96083.63;;;28.52;39.44
81608;BME280;71022;48.122;11.576;2023-08-20T07:26:07;96087.53;;;28.89;39.23
81608;BME280;71022;48.122;11.576;2023-08-20T07:28:35;96085.91;;;29.09;38.66
81608;BME280;71022;48.122;11.576;2023-08-20T07:31:25;96087.94;;;29.31;37.73
81608;BME280;71022;48.122;11.576;2023-08-20T07:33:54;96095.09;;;29.44;36.46
81608;BME280;71022;48.122;11.576;2023-08-20T07:36:24;96096.41;;;29.61;36.69
81608;BME280;71022;48.122;11.576;2023-08-20T07:38:53;96103.75;;;29.90;36.08
81608;BME280;71022;48.122;11.576;2023-08-20T07:41:21;96099.28;;;30.10;35.51
81608;BME280;71022;48.122;11.576;2023-08-20T07:43:49;96100.69;;;30.15;34.56
81608;BME280;71022;48.122;11.576;2023-08-20T07:46:16;96109.72;;;30.41;34.85
81608;BME280;71022;48.122;11.576;2023-08-20T07:48:44;96104.84;;;30.59;34.57
81608;BME280;71022;48.122;11.576;2023-08-20T07:51:11;96104.84;;;30.68;34.65
81608;BME280;71022;48.122;11.576;2023-08-20T07:53:38;96114.44;;;31.07;33.02
81608;BME280;71022;48.122;11.576;2023-08-20T07:56:06;96111.31;;;31.05;34.40
81608;BME280;71022;48.122;11.576;2023-08-20T07:58:33;96116.63;;;31.12;35.43
81608;BME280;71022;48.122;11.576;2023-08-20T08:01:00;96118.50;;;31.24;35.05
81608;BME280;71022;48.122;11.576;2023-08-20T08:03:27;96119.75;;;31.33;32.74
81608;BME280;71022;48.122;11.576;2023-08-20T08:05:55;96116.53;;;31.58;32.17
81608;BME280;71022;48.122;11.576;2023-08-20T08:08:23;96119.06;;;31.65;31.12
81608;BME280;71022;48.122;11.576;2023-08-20T08:10:50;96115.63;;;31.34;31.16
81608;BME280;71022;48.122;11.576;2023-08-20T08:13:22;96115.03;;;31.30;32.76
81608;BME280;71022;48.122;11.576;2023-08-20T08:15:50;96121.59;;;31.63;32.50
81608;BME280;71022;48.122;11.576;2023-08-20T08:18:18;96122.28;;;31.82;30.62
81608;BME280;71022;48.122;11.576;2023-08-20T08:20:46;96121.22;;;32.12;28.91
81608;BME280;71022;48.122;11.576;2023-08-20T08:23:14;96118.31;;;32.45;28.67
81608;BME280;71022;48.122;11.576;2023-08-20T08:25:41;96116.81;;;32.11;29.04
81608;BME280;71022;48.122;11.576;2023-08-20T08:28:08;96126.66;;;32.24;29.97
81608;BME280;71022;48.122;11.576;2023-08-20T08:30:37;96122.28;;;32.14;30.21
81608;BME280;71022;48.122;11.576;2023-08-20T08:33:04;96117.84;;;32.22;29.78
81608;BME280;71022;48.122;11.576;2023-08-20T08:35:31;96122.34;;;32.29;30.32
81608;BME280;71022;48.122;11.576;2023-08-20T08:37:59;96124.50;;;32.19;30.26
81608;BME280;71022;48.122;11.576;2023-08-20T08:40:28;96119.72;;;32.25;30.06
81608;BME280;71022;48.122;11.576;2023-08-20T08:42:56;96126.97;;;32.26;30.39
81608;BME280;71022;48.122;11.576;2023-08-20T08:45:26;96117.72;;;32.41;29.99
81608;BME280;71022;48.122;11.576;2023-08-20T08:47:54;96113.19;;;32.34;29.58
81608;BME280;71022;48.122;11.576;2023-08-20T08:50:22;96120.00;;;32.27;29.52
81608;BME280;71022;48.122;11.576;2023-08-20T08:52:51;96116.50;;;32.32;28.83
81608;BME280;71022;48.122;11.576;2023-08-20T08:55:19;96115.13;;;32.28;29.58
81608;BME280;71022;48.122;11.576;2023-08-20T08:57:47;96116.97;;;32.55;29.18
81608;BME280;71022;48.122;11.576;2023-08-20T09:00:15;96105.38;;;32.44;29.42
81608;BME280;71022;48.122;11.576;2023-08-20T09:02:42;96108.91;;;32.53;29.11
81608;BME280;71022;48.122;11.576;2023-08-20T09:05:09;96103.91;;;32.72;29.01
81608;BME280;71022;48.122;11.576;2023-08-20T09:07:42;96107.19;;;32.56;28.96
81608;BME280;71022;48.122;11.576;2023-08-20T09:10:10;96106.75;;;32.48;29.90
81608;BME280;71022;48.122;11.576;2023-08-20T09:12:38;96116.72;;;32.91;30.60
81608;BME280;71022;48.122;11.576;2023-08-20T09:15:11;96112.50;;;33.01;29.35
81608;BME280;71022;48.122;11.576;2023-08-20T09:17:41;96113.22;;;33.25;28.81
81608;BME280;71022;48.122;11.576;2023-08-20T09:20:08;96121.47;;;33.23;28.98
81608;BME280;71022;48.122;11.576;2023-08-20T09:22:36;96115.78;;;33.23;29.50
81608;BME280;71022;48.122;11.576;2023-08-20T09:25:04;96118.22;;;33.30;29.61
81608;BME280;71022;48.122;11.576;2023-08-20T09:27:39;96115.50;;;33.21;29.16
81608;BME280;71022;48.122;11.576;2023-08-20T09:30:07;96116.34;;;33.27;29.07
81608;BME280;71022;48.122;11.576;2023-08-20T09:32:35;96116.63;;;33.00;29.60
81608;BME280;71022;48.122;11.576;2023-08-20T09:35:02;96113.41;;;33.22;29.94
81608;BME280;71022;48.122;11.576;2023-08-20T09:37:29;96116.78;;;33.20;29.63
81608;BME280;71022;48.122;11.576;2023-08-20T09:39:57;96123.53;;;33.37;29.56
81608;BME280;71022;48.122;11.576;2023-08-20T09:42:25;96118.34;;;33.21;28.21
81608;BME280;71022;48.122;11.576;2023-08-20T09:44:55;96126.19;;;33.12;27.46
81608;BME280;71022;48.122;11.576;2023-08-20T09:47:24;96124.41;;;33.14;27.39
81608;BME280;71022;48.122;11.576;2023-08-20T09:49:53;96119.63;;;33.20;27.99
81608;BME280;71022;48.122;11.576;2023-08-20T09:52:31;96124.78;;;33.07;27.56
81608;BME280;71022;48.122;11.576;2023-08-20T09:55:09;96127.00;;;33.27;27.11
81608;BME280;71022;48.122;11.576;2023-08-20T09:57:41;96127.38;;;33.20;29.46
81608;BME280;71022;48.122;11.576;2023-08-20T10:00:12;96121.75;;;33.11;27.42
81608;BME280;71022;48.122;11.576;2023-08-20T10:02:43;96128.72;;;33.24;26.96
81608;BME280;71022;48.122;11.576;2023-08-20T10:05:12;96126.19;;;33.41;26.34
81608;BME280;71022;48.122;11.576;2023-08-20T10:07:42;96127.88;;;33.48;26.63
81608;BME280;71022;48.122;11.576;2023-08-20T10:10:10;96125.81;;;32.95;26.58
81608;BME280;71022;48.122;11.576;2023-08-20T10:12:40;96125.13;;;32.85;26.41
81608;BME280;71022;48.122;11.576;2023-08-20T10:15:09;96133.66;;;33.09;27.33
81608;BME280;71022;48.122;11.576;2023-08-20T10:17:38;96128.50;;;32.99;25.90
81608;BME280;71022;48.122;11.576;2023-08-20T10:20:07;96130.19;;;32.67;27.35
81608;BME280;71022;48.122;11.576;2023-08-20T10:22:39;96129.81;;;32.74;25.70
81608;BME280;71022;48.122;11.576;2023-08-20T10:25:11;96120.97;;;32.72;25.42
81608;BME280;71022;48.122;11.576;2023-08-20T10:27:40;96118.81;;;32.67;25.83
81608;BME280;71022;48.122;11.576;2023-08-20T10:30:16;96128.00;;;32.62;26.33
81608;BME280;71022;48.122;11.576;2023-08-20T10:35:26;96127.34;;;32.19;27.43
81608;BME280;71022;48.122;11.576;2023-08-20T10:38:11;96132.19;;;31.95;27.68
81608;BME280;71022;48.122;11.576;2023-08-20T10:41:00;96125.00;;;31.76;28.43
81608;BME280;71022;48.122;11.576;2023-08-20T10:43:30;96130.09;;;32.05;28.50
81608;BME280;71022;48.122;11.576;2023-08-20T10:48:39;96128.34;;;32.07;29.78
81608;BME280;71022;48.122;11.576;2023-08-20T10:51:11;96119.81;;;31.74;29.85
81608;BME280;71022;48.122;11.576;2023-08-20T10:53:40;96117.81;;;31.57;30.52
81608;BME280;71022;48.122;11.576;2023-08-20T10:56:13;96116.72;;;31.45;30.66
81608;BME280;71022;48.122;11.576;2023-08-20T10:58:43;96118.44;;;31.61;30.48
81608;BME280;71022;48.122;11.576;2023-08-20T11:01:22;96111.53;;;31.53;29.82
81608;BME280;71022;48.122;11.576;2023-08-20T11:03:51;96112.78;;;31.43;29.82
81608;BME280;71022;48.122;11.576;2023-08-20T11:06:18;96114.31;;;31.62;30.10
81608;BME280;71022;48.122;11.576;2023-08-20T11:08:45;96122.44;;;31.78;30.04
81608;BME280;71022;48.122;11.576;2023-08-20T11:11:13;96113.75;;;31.82;29.69
81608;BME280;71022;48.122;11.576;2023-08-20T11:13:40;96124.66;;;31.83;30.08
81608;BME280;71022;48.122;11.576;2023-08-20T11:16:09;96113.63;;;31.76;29.64
81608;BME280;71022;48.122;11.576;2023-08-20T11:18:37;96113.34;;;31.74;28.71
81608;BME280;71022;48.122;11.576;2023-08-20T11:21:04;96115.03;;;31.81;28.65
81608;BME280;71022;48.122;11.576;2023-08-20T11:23:32;96115.63;;;31.85;29.25
81608;BME280;71022;48.122;11.576;2023-08-20T11:25:59;96113.28;;;31.83;28.86
81608;BME280;71022;48.122;11.576;2023-08-20T11:28:27;96107.72;;;31.56;29.55
81608;BME280;71022;48.122;11.576;2023-08-20T11:30:55;96113.38;;;31.65;29.49
81608;BME280;71022;48.122;11.576;2023-08-20T11:33:23;96104.63;;;31.77;29.70
81608;BME280;71022;48.122;11.576;2023-08-20T11:35:51;96108.56;;;31.80;28.71
81608;BME280;71022;48.122;11.576;2023-08-20T11:38:20;96095.69;;;31.61;28.74
81608;BME280;71022;48.122;11.576;2023-08-20T11:40:48;96105.41;;;31.78;28.72
81608;BME280;71022;48.122;11.576;2023-08-20T11:43:16;96100.97;;;31.86;29.07
81608;BME280;71022;48.122;11.576;2023-08-20T11:45:47;96099.38;;;31.85;29.23
81608;BME280;71022;48.122;11.576;2023-08-20T11:48:16;96103.41;;;32.02;28.96
81608;BME280;71022;48.122;11.576;2023-08-20T11:50:44;96105.78;;;32.04;28.28
81608;BME280;71022;48.122;11.576;2023-08-20T11:53:11;96092.97;;;32.08;28.82
81608;BME280;71022;48.122;11.576;2023-08-20T11:55:40;96085.34;;;32.14;28.47
81608;BME280;71022;48.122;11.576;2023-08-20T11:58:11;96097.38;;;32.09;28.85
81608;BME280;71022;48.122;11.576;2023-08-20T12:00:38;96090.97;;;32.23;28.88
81608;BME280;71022;48.122;11.576;2023-08-20T12:03:06;96087.81;;;32.21;27.62
81608;BME280;71022;48.122;11.576;2023-08-20T12:05:33;96088.66;;;32.37;27.84
81608;BME280;71022;48.122;11.576;2023-08-20T12:08:01;96081.41;;;32.36;28.07
81608;BME280;71022;48.122;11.576;2023-08-20T12:10:30;96084.78;;;32.49;28.16
81608;BME280;71022;48.122;11.576;2023-08-20T12:12:58;96077.91;;;32.41;27.33
81608;BME280;71022;48.122;11.576;2023-08-20T12:15:25;96076.69;;;32.32;27.57
81608;BME280;71022;48.122;11.576;2023-08-20T12:20:23;96084.19;;;32.45;27.83
81608;BME280;71022;48.122;11.576;2023-08-20T12:22:51;96076.16;;;32.43;27.92
81608;BME280;71022;48.122;11.576;2023-08-20T12:25:18;96086.06;;;32.48;28.13
81608;BME280;71022;48.122;11.576;2023-08-20T12:27:46;96082.47;;;32.62;28.00
81608;BME280;71022;48.122;11.576;2023-08-20T12:30:13;96083.09;;;32.66;27.29
81608;BME280;71022;48.122;11.576;2023-08-20T12:32:40;96081.56;;;32.79;27.20
81608;BME280;71022;48.122;11.576;2023-08-20T12:35:07;96083.38;;;32.68;27.50
81608;BME280;71022;48.122;11.576;2023-08-20T12:37:35;96071.78;;;32.57;27.53
81608;BME280;71022;48.122;11.576;2023-08-20T12:40:02;96073.41;;;32.49;27.44
81608;BME280;71022;48.122;11.576;2023-08-20T12:42:38;96068.31;;;32.53;27.37
81608;BME280;71022;48.122;11.576;2023-08-20T12:45:08;96065.78;;;32.55;27.49
81608;BME280;71022;48.122;11.576;2023-08-20T12:47:36;96066.72;;;32.37;27.59
81608;BME280;71022;48.122;11.576;2023-08-20T12:50:04;96067.84;;;32.54;27.56
81608;BME280;71022;48.122;11.576;2023-08-20T12:52:33;96058.84;;;32.32;27.90
81608;BME280;71022;48.122;11.576;2023-08-20T12:55:01;96060.84;;;32.41;27.78
81608;BME280;71022;48.122;11.576;2023-08-20T12:57:29;96054.53;;;32.37;27.53
81608;BME280;71022;48.122;11.576;2023-08-20T12:59:57;96056.50;;;32.30;27.58
81608;BME280;71022;48.122;11.576;2023-08-20T13:02:24;96052.69;;;32.33;27.10
81608;BME280;71022;48.122;11.576;2023-08-20T13:04:52;96053.56;;;32.40;26.88
81608;BME280;71022;48.122;11.576;2023-08-20T13:07:19;96057.38;;;32.60;26.05
81608;BME280;71022;48.122;11.576;2023-08-20T13:09:47;96049.31;;;32.59;26.20